createdAt,value
2023-04-07T00:00:04.208Z,100821.94
2023-04-07T00:02:39.793Z,100856.41
2023-04-07T00:05:08.912Z,100839.84
2023-04-07T00:07:44.966Z,100852.06
2023-04-07T00:10:22.154Z,100869.97
2023-04-07T00:12:50.179Z,100834.19
2023-04-07T00:15:18.226Z,100872.69
2023-04-07T00:17:46.214Z,100834.72
2023-04-07T00:20:14.102Z,100827.38
2023-04-07T00:22:41.753Z,100826.84
2023-04-07T00:25:09.782Z,100827.66
2023-04-07T00:27:38.847Z,100795.09
2023-04-07T00:30:07.535Z,100837.91
2023-04-07T00:32:36.570Z,100805.09
2023-04-07T00:35:04.792Z,100842.59
2023-04-07T00:37:32.916Z,100822.78
2023-04-07T00:40:00.755Z,100829.00
2023-04-07T00:42:28.498Z,100824.13
2023-04-07T00:44:56.297Z,100821.13
2023-04-07T00:47:24.407Z,100827.59
2023-04-07T00:49:52.496Z,100795.09
2023-04-07T00:52:27.601Z,100834.66
2023-04-07T00:54:56.103Z,100777.44
2023-04-07T00:57:25.901Z,100807.53
2023-04-07T00:59:53.838Z,100778.78
2023-04-07T01:02:24.988Z,100823.78
2023-04-07T01:05:16.914Z,100824.06
2023-04-07T01:08:04.916Z,100825.69
2023-04-07T01:10:47.061Z,100806.94
2023-04-07T01:13:28.851Z,100792.88
2023-04-07T01:16:09.403Z,100819.72
2023-04-07T01:18:45.680Z,100738.91
2023-04-07T01:21:18.495Z,100806.94
2023-04-07T01:24:05.954Z,100755.16
2023-04-07T01:26:34.262Z,100802.03
2023-04-07T01:29:12.044Z,100800.41
2023-04-07T01:31:41.897Z,100796.88
2023-04-07T01:34:14.537Z,100786.81
2023-04-07T01:36:43.382Z,100748.91
2023-04-07T01:39:12.517Z,100770.53
2023-04-07T01:41:42.027Z,100781.09
2023-04-07T01:44:10.099Z,100741.84
2023-04-07T01:46:38.329Z,100737.50
2023-04-07T01:49:07.642Z,100777.06
2023-04-07T01:51:36.099Z,100749.13
2023-04-07T01:54:05.505Z,100742.34
2023-04-07T01:56:34.017Z,100714.69
2023-04-07T01:59:05.837Z,100779.25
2023-04-07T02:01:33.675Z,100762.66
2023-04-07T02:04:32.323Z,100764.03
2023-04-07T02:07:04.407Z,100746.94
2023-04-07T02:09:41.626Z,100728.81
2023-04-07T02:12:13.150Z,100736.94
2023-04-07T02:14:46.475Z,100744.50
2023-04-07T02:17:18.092Z,100772.47
2023-04-07T02:19:47.016Z,100755.09
2023-04-07T02:22:16.631Z,100724.97
2023-04-07T02:24:44.456Z,100701.16
2023-04-07T02:27:12.650Z,100742.59
2023-04-07T02:29:40.982Z,100729.81
2023-04-07T02:32:09.123Z,100723.91
2023-04-07T02:34:36.942Z,100657.19
2023-04-07T02:37:04.722Z,100750.97
2023-04-07T02:39:32.530Z,100754.78
2023-04-07T02:42:00.404Z,100750.97
2023-04-07T02:44:30.366Z,100719.88
2023-04-07T02:46:58.312Z,100754.78
2023-04-07T02:49:26.057Z,100744.75
2023-04-07T02:51:53.714Z,100732.53
2023-04-07T02:54:21.762Z,100720.34
2023-04-07T02:56:49.648Z,100735.78
2023-04-07T02:59:17.477Z,100718.97
2023-04-07T03:01:45.821Z,100702.72
2023-04-07T03:04:13.802Z,100698.38
2023-04-07T03:06:41.722Z,100743.91
2023-04-07T03:09:14.491Z,100737.94
2023-04-07T03:11:43.674Z,100720.06
2023-04-07T03:14:11.907Z,100724.69
2023-04-07T03:16:47.216Z,100735.78
2023-04-07T03:19:16.688Z,100707.59
2023-04-07T03:21:47.949Z,100694.84
2023-04-07T03:24:15.658Z,100715.72
2023-04-07T03:26:43.344Z,100719.75
2023-04-07T03:29:27.277Z,100714.63
2023-04-07T03:31:55.168Z,100698.91
2023-04-07T03:34:25.623Z,100703.78
2023-04-07T03:36:53.446Z,100719.22
2023-04-07T03:39:23.180Z,100655.00
2023-04-07T03:41:55.113Z,100705.41
2023-04-07T03:44:23.058Z,100720.31
2023-04-07T03:46:51.447Z,100710.31
2023-04-07T03:49:21.458Z,100717.88
2023-04-07T03:51:50.382Z,100699.47
2023-04-07T03:54:19.846Z,100699.72
2023-04-07T03:56:48.027Z,100709.47
2023-04-07T03:59:19.821Z,100624.69
2023-04-07T04:01:56.205Z,100688.09
2023-04-07T04:04:24.813Z,100674.84
2023-04-07T04:06:53.558Z,100685.66
2023-04-07T04:09:26.808Z,100666.94
2023-04-07T04:11:54.518Z,100683.75
2023-04-07T04:14:22.344Z,100714.09
2023-04-07T04:16:56.385Z,100712.78
2023-04-07T04:19:46.117Z,100693.00
2023-04-07T04:22:28.279Z,100694.63
2023-04-07T04:24:59.510Z,100692.19
2023-04-07T04:27:28.973Z,100692.75
2023-04-07T04:30:06.614Z,100665.34
2023-04-07T04:32:39.811Z,100712.25
2023-04-07T04:35:09.258Z,100694.91
2023-04-07T04:37:45.599Z,100714.16
2023-04-07T04:40:15.555Z,100705.50
2023-04-07T04:42:46.502Z,100714.16
2023-04-07T04:45:16.911Z,100691.94
2023-04-07T04:47:47.843Z,100630.41
2023-04-07T04:50:15.783Z,100663.19
2023-04-07T04:52:46.162Z,100671.88
2023-04-07T04:55:20.964Z,100699.25
2023-04-07T04:57:48.889Z,100709.88
2023-04-07T05:00:22.633Z,100713.91
2023-04-07T05:02:56.868Z,100683.25
2023-04-07T05:05:30.168Z,100681.06
2023-04-07T05:07:58.077Z,100709.06
2023-04-07T05:10:30.474Z,100675.41
2023-04-07T05:12:58.618Z,100709.88
2023-04-07T05:15:26.469Z,100694.13
2023-04-07T05:17:55.025Z,100685.44
2023-04-07T05:20:28.066Z,100692.50
2023-04-07T05:22:56.563Z,100665.94
2023-04-07T05:25:30.464Z,100720.16
2023-04-07T05:28:01.636Z,100681.13
2023-04-07T05:30:29.392Z,100699.28
2023-04-07T05:32:57.530Z,100657.25
2023-04-07T05:35:38.806Z,100656.44
2023-04-07T05:38:06.618Z,100693.84
2023-04-07T05:40:36.282Z,100653.47
2023-04-07T05:43:06.330Z,100691.41
2023-04-07T05:45:34.990Z,100675.41
2023-04-07T05:48:03.101Z,100702.25
2023-04-07T05:50:44.723Z,100700.06
2023-04-07T05:53:16.474Z,100703.59
2023-04-07T05:55:44.646Z,100655.91
2023-04-07T05:58:35.490Z,100710.69
2023-04-07T06:01:04.198Z,100703.34
2023-04-07T06:03:32.859Z,100684.34
2023-04-07T06:06:15.587Z,100670.53
2023-04-07T06:08:43.820Z,100697.66
2023-04-07T06:11:13.193Z,100693.56
2023-04-07T06:13:41.560Z,100649.69
2023-04-07T06:16:10.250Z,100712.03
2023-04-07T06:18:38.966Z,100674.06
2023-04-07T06:21:07.767Z,100676.78
2023-04-07T06:23:35.578Z,100668.63
2023-04-07T06:26:11.387Z,100720.41
2023-04-07T06:28:40.186Z,100726.66
2023-04-07T06:31:09.053Z,100687.06
2023-04-07T06:33:38.146Z,100722.81
2023-04-07T06:36:06.298Z,100717.38
2023-04-07T06:38:34.138Z,100705.44
2023-04-07T06:41:02.943Z,100716.81
2023-04-07T06:43:32.060Z,100662.63
2023-04-07T06:46:05.077Z,100724.38
2023-04-07T06:48:32.808Z,100724.66
2023-04-07T06:51:00.560Z,100718.41
2023-04-07T06:53:28.325Z,100700.53
2023-04-07T06:56:07.306Z,100713.00
2023-04-07T06:58:37.520Z,100724.91
2023-04-07T07:01:06.456Z,100722.75
2023-04-07T07:03:34.420Z,100720.53
2023-04-07T07:06:02.804Z,100708.66
2023-04-07T07:08:31.271Z,100669.06
2023-04-07T07:10:59.399Z,100714.31
2023-04-07T07:13:28.771Z,100681.78
2023-04-07T07:15:56.578Z,100702.09
2023-04-07T07:18:24.617Z,100678.78
2023-04-07T07:20:52.604Z,100677.44
2023-04-07T07:23:20.544Z,100702.34
2023-04-07T07:25:49.089Z,100704.78
2023-04-07T07:28:16.878Z,100693.69
2023-04-07T07:30:44.770Z,100704.78
2023-04-07T07:33:12.722Z,100712.91
2023-04-07T07:35:40.979Z,100726.50
2023-04-07T07:38:08.648Z,100724.88
2023-04-07T07:40:36.860Z,100689.09
2023-04-07T07:43:04.617Z,100722.09
2023-04-07T07:45:32.368Z,100680.66
2023-04-07T07:48:00.284Z,100691.47
2023-04-07T07:50:28.212Z,100633.81
2023-04-07T07:52:56.293Z,100687.94
2023-04-07T07:55:24.134Z,100683.63
2023-04-07T07:57:53.014Z,100668.97
2023-04-07T08:00:21.075Z,100690.88
2023-04-07T08:02:49.153Z,100704.44
2023-04-07T08:05:17.027Z,100669.44
2023-04-07T08:07:44.766Z,100670.00
2023-04-07T08:10:15.668Z,100716.06
2023-04-07T08:12:43.660Z,100691.09
2023-04-07T08:15:11.421Z,100625.06
2023-04-07T08:17:39.324Z,100629.66
2023-04-07T08:20:08.212Z,100718.47
2023-04-07T08:22:35.952Z,100667.03
2023-04-07T08:25:04.008Z,100709.00
2023-04-07T08:27:32.350Z,100716.56
2023-04-07T08:30:02.089Z,100712.22
2023-04-07T08:32:42.284Z,100680.50
2023-04-07T08:35:10.526Z,100721.38
2023-04-07T08:37:39.690Z,100707.81
2023-04-07T08:40:08.230Z,100709.72
2023-04-07T08:42:40.982Z,100720.28
2023-04-07T08:45:10.186Z,100669.34
2023-04-07T08:47:41.827Z,100678.81
2023-04-07T08:50:11.980Z,100718.38
2023-04-07T08:52:54.042Z,100716.19
2023-04-07T08:55:23.796Z,100686.69
2023-04-07T08:57:52.271Z,100674.47
2023-04-07T09:00:20.226Z,100714.28
2023-04-07T09:02:49.841Z,100717.56
2023-04-07T09:05:18.797Z,100702.88
2023-04-07T09:07:46.783Z,100630.34
2023-04-07T09:10:14.550Z,100675.81
2023-04-07T09:12:42.278Z,100669.25
2023-04-07T09:15:10.136Z,100689.56
2023-04-07T09:17:37.922Z,100702.00
2023-04-07T09:20:07.904Z,100694.97
2023-04-07T09:22:42.569Z,100693.31
2023-04-07T09:25:19.318Z,100702.28
2023-04-07T09:28:02.125Z,100666.81
2023-04-07T09:30:31.715Z,100702.00
2023-04-07T09:33:01.417Z,100692.53
2023-04-07T09:35:30.262Z,100654.03
2023-04-07T09:38:11.748Z,100696.53
2023-04-07T09:40:39.676Z,100684.88
2023-04-07T09:43:15.936Z,100675.69
2023-04-07T09:45:43.931Z,100662.06
2023-04-07T09:48:24.413Z,100688.56
2023-04-07T09:50:52.255Z,100614.66
2023-04-07T09:53:20.338Z,100688.81
2023-04-07T09:55:48.818Z,100656.06
2023-04-07T09:58:17.226Z,100685.81
2023-04-07T10:00:46.076Z,100675.50
2023-04-07T10:03:15.549Z,100638.63
2023-04-07T10:05:44.819Z,100664.69
2023-04-07T10:08:12.632Z,100672.97
2023-04-07T10:10:43.408Z,100662.41
2023-04-07T10:13:12.580Z,100670.31
2023-04-07T10:15:41.276Z,100589.91
2023-04-07T10:18:09.922Z,100658.88
2023-04-07T10:20:44.066Z,100668.88
2023-04-07T10:23:23.703Z,100658.03
2023-04-07T10:25:55.173Z,100622.78
2023-04-07T10:28:26.493Z,100670.19
2023-04-07T10:30:55.267Z,100613.91
2023-04-07T10:33:50.182Z,100629.75
2023-04-07T10:36:22.250Z,100651.38
2023-04-07T10:39:08.582Z,100649.72
2023-04-07T10:41:38.489Z,100645.06
2023-04-07T10:44:08.272Z,100647.50
2023-04-07T10:46:45.452Z,100635.81
2023-04-07T10:49:14.075Z,100625.72
2023-04-07T10:51:43.516Z,100628.75
2023-04-07T10:54:22.836Z,100602.44
2023-04-07T10:57:03.157Z,100620.28
2023-04-07T10:59:31.750Z,100620.28
2023-04-07T11:02:22.937Z,100607.19
2023-04-07T11:04:51.162Z,100569.31
2023-04-07T11:07:19.997Z,100615.81
2023-04-07T11:09:47.912Z,100587.97
2023-04-07T11:12:26.605Z,100606.00
2023-04-07T11:14:54.885Z,100578.94
2023-04-07T11:17:22.967Z,100576.72
2023-04-07T11:19:52.912Z,100588.69
2023-04-07T11:24:51.710Z,100509.63
2023-04-07T11:27:21.212Z,100572.78
2023-04-07T11:29:49.371Z,100553.94
2023-04-07T11:32:26.025Z,100571.91
2023-04-07T11:34:54.235Z,100599.78
2023-04-07T11:37:25.220Z,100587.22
2023-04-07T11:39:59.576Z,100578.00
2023-04-07T11:42:35.449Z,100577.94
2023-04-07T11:45:04.197Z,100560.84
2023-04-07T11:47:40.156Z,100567.25
2023-04-07T11:50:08.240Z,100522.06
2023-04-07T11:52:48.747Z,100555.25
2023-04-07T11:55:26.774Z,100537.66
2023-04-07T11:57:54.666Z,100529.13
2023-04-07T12:00:22.626Z,100546.28
2023-04-07T12:02:51.659Z,100521.47
2023-04-07T12:05:19.584Z,100517.72
2023-04-07T12:07:55.756Z,100510.34
2023-04-07T12:10:28.765Z,100543.03
2023-04-07T12:12:59.313Z,100501.44
2023-04-07T12:15:29.318Z,100485.75
2023-04-07T12:18:00.170Z,100533.72
2023-04-07T12:20:28.005Z,100514.25
2023-04-07T12:22:56.258Z,100497.47
2023-04-07T12:25:24.267Z,100499.06
2023-04-07T12:27:52.287Z,100516.97
2023-04-07T12:30:20.104Z,100508.00
2023-04-07T12:32:48.394Z,100539.19
2023-04-07T12:35:17.197Z,100530.47
2023-04-07T12:37:45.424Z,100526.38
2023-04-07T12:40:13.657Z,100500.72
2023-04-07T12:42:41.532Z,100511.97
2023-04-07T12:45:12.439Z,100507.50
2023-04-07T12:47:40.792Z,100480.69
2023-04-07T12:50:08.683Z,100486.66
2023-04-07T12:52:36.721Z,100467.88
2023-04-07T12:55:05.611Z,100464.13
2023-04-07T12:57:33.359Z,100488.38
2023-04-07T13:00:01.227Z,100441.38
2023-04-07T13:02:29.261Z,100472.41
2023-04-07T13:04:57.461Z,100425.13
2023-04-07T13:07:26.256Z,100480.09
2023-04-07T13:09:54.999Z,100486.41
2023-04-07T13:12:22.913Z,100477.63
2023-04-07T13:14:59.811Z,100450.00
2023-04-07T13:17:29.305Z,100446.19
2023-04-07T13:19:57.242Z,100426.97
2023-04-07T13:22:25.620Z,100464.19
2023-04-07T13:24:53.505Z,100425.50
2023-04-07T13:27:21.656Z,100399.00
2023-04-07T13:29:49.514Z,100423.38
2023-04-07T13:32:17.620Z,100448.97
2023-04-07T13:34:45.718Z,100413.50
2023-04-07T13:37:13.901Z,100420.28
2023-04-07T13:39:42.054Z,100381.09
2023-04-07T13:42:12.605Z,100402.81
2023-04-07T13:44:40.614Z,100409.81
2023-04-07T13:47:08.774Z,100415.69
2023-04-07T13:49:36.984Z,100370.94
2023-04-07T13:52:05.177Z,100386.53
2023-04-07T13:54:33.013Z,100389.28
2023-04-07T13:57:00.763Z,100356.00
2023-04-07T13:59:28.505Z,100366.63
2023-04-07T14:01:56.617Z,100402.75
2023-04-07T14:04:24.677Z,100345.91
2023-04-07T14:06:52.813Z,100359.31
2023-04-07T14:09:21.097Z,100381.34
2023-04-07T14:11:49.386Z,100363.66
2023-04-07T14:14:17.693Z,100338.78
2023-04-07T14:16:46.428Z,100388.81
2023-04-07T14:19:14.475Z,100352.63
2023-04-07T14:21:42.375Z,100377.81
2023-04-07T14:24:10.140Z,100378.22
2023-04-07T14:26:37.814Z,100341.94
2023-04-07T14:29:05.914Z,100352.34
2023-04-07T14:31:33.853Z,100323.72
2023-04-07T14:34:01.685Z,100333.63
2023-04-07T14:36:31.234Z,100334.13
2023-04-07T14:38:59.098Z,100352.25
2023-04-07T14:41:27.891Z,100305.94
2023-04-07T14:43:56.561Z,100353.19
2023-04-07T14:46:25.246Z,100357.00
2023-04-07T14:48:53.605Z,100325.97
2023-04-07T14:51:21.626Z,100354.41
2023-04-07T14:53:55.737Z,100322.44
2023-04-07T14:56:25.035Z,100355.41
2023-04-07T14:58:54.082Z,100316.25
2023-04-07T15:01:22.086Z,100349.53
2023-04-07T15:03:52.050Z,100303.03
2023-04-07T15:06:20.454Z,100309.88
2023-04-07T15:08:48.277Z,100332.69
2023-04-07T15:11:16.214Z,100329.81
2023-04-07T15:13:43.954Z,100326.78
2023-04-07T15:16:14.254Z,100312.72
2023-04-07T15:18:44.761Z,100322.50
2023-04-07T15:21:13.232Z,100306.28
2023-04-07T15:23:42.305Z,100334.78
2023-04-07T15:26:10.911Z,100295.75
2023-04-07T15:28:39.358Z,100340.25
2023-04-07T15:31:09.055Z,100294.28
2023-04-07T15:33:38.579Z,100297.00
2023-04-07T15:36:09.619Z,100324.69
2023-04-07T15:38:39.612Z,100309.28
2023-04-07T15:41:07.569Z,100285.88
2023-04-07T15:43:36.924Z,100312.56
2023-04-07T15:46:04.835Z,100310.13
2023-04-07T15:48:32.864Z,100314.41
2023-04-07T15:51:00.623Z,100266.53
2023-04-07T15:53:29.584Z,100291.19
2023-04-07T15:55:57.552Z,100290.88
2023-04-07T15:58:25.405Z,100290.50
2023-04-07T16:00:53.589Z,100303.72
2023-04-07T16:03:21.678Z,100297.47
2023-04-07T16:05:51.318Z,100229.56
2023-04-07T16:08:19.459Z,100266.34
2023-04-07T16:10:47.213Z,100241.19
2023-04-07T16:13:14.932Z,100267.97
2023-04-07T16:15:43.103Z,100289.59
2023-04-07T16:18:12.544Z,100289.91
2023-04-07T16:20:43.808Z,100231.63
2023-04-07T16:23:12.593Z,100300.91
2023-04-07T16:25:40.462Z,100275.03
2023-04-07T16:28:08.444Z,100253.63
2023-04-07T16:30:36.560Z,100258.88
2023-04-07T16:33:04.724Z,100300.41
2023-04-07T16:35:33.225Z,100292.31
2023-04-07T16:38:06.401Z,100257.25
2023-04-07T16:40:34.605Z,100286.06
2023-04-07T16:43:02.358Z,100286.38
2023-04-07T16:45:31.673Z,100272.84
2023-04-07T16:47:59.895Z,100290.50
2023-04-07T16:50:27.681Z,100292.44
2023-04-07T16:52:57.745Z,100271.81
2023-04-07T16:55:25.769Z,100294.66
2023-04-07T16:57:53.840Z,100286.38
2023-04-07T17:00:22.101Z,100229.38
2023-04-07T17:02:49.931Z,100281.28
2023-04-07T17:05:18.450Z,100268.16
2023-04-07T17:07:47.282Z,100291.59
2023-04-07T17:10:15.423Z,100296.16
2023-04-07T17:12:43.506Z,100296.25
2023-04-07T17:15:11.527Z,100268.75
2023-04-07T17:17:39.621Z,100267.94
2023-04-07T17:20:08.055Z,100319.88
2023-04-07T17:22:36.559Z,100323.41
2023-04-07T17:25:05.557Z,100318.41
2023-04-07T17:27:33.491Z,100289.50
2023-04-07T17:30:01.342Z,100329.44
2023-04-07T17:32:29.220Z,100288.28
2023-04-07T17:34:56.931Z,100294.47
2023-04-07T17:37:24.546Z,100289.66
2023-04-07T17:39:52.529Z,100306.28
2023-04-07T17:42:20.541Z,100260.81
2023-04-07T17:44:51.569Z,100321.19
2023-04-07T17:47:19.362Z,100331.34
2023-04-07T17:49:47.210Z,100297.13
2023-04-07T17:52:14.971Z,100328.13
2023-04-07T17:54:43.393Z,100284.50
2023-04-07T17:57:11.844Z,100327.41
2023-04-07T17:59:39.684Z,100302.94
2023-04-07T18:02:11.099Z,100341.38
2023-04-07T18:04:40.563Z,100356.69
2023-04-07T18:07:08.733Z,100334.44
2023-04-07T18:09:37.027Z,100332.63
2023-04-07T18:12:05.130Z,100341.25
2023-04-07T18:14:32.945Z,100357.47
2023-04-07T18:17:00.834Z,100332.72
2023-04-07T18:19:30.219Z,100328.38
2023-04-07T18:21:58.103Z,100370.38
2023-04-07T18:24:26.293Z,100357.16
2023-04-07T18:26:54.315Z,100322.97
2023-04-07T18:29:22.034Z,100354.41
2023-04-07T18:31:50.126Z,100362.44
2023-04-07T18:34:17.963Z,100352.94
2023-04-07T18:36:47.730Z,100366.72
2023-04-07T18:39:15.541Z,100340.00
2023-04-07T18:41:45.704Z,100371.13
2023-04-07T18:44:13.474Z,100352.81
2023-04-07T18:46:41.675Z,100380.59
2023-04-07T18:49:10.347Z,100378.69
2023-04-07T18:51:38.542Z,100365.53
2023-04-07T18:54:06.498Z,100324.59
2023-04-07T18:56:34.862Z,100292.44
2023-04-07T18:59:03.981Z,100369.94
2023-04-07T19:01:32.497Z,100400.19
2023-04-07T19:04:00.267Z,100408.06
2023-04-07T19:06:30.117Z,100356.47
2023-04-07T19:08:59.059Z,100353.09
2023-04-07T19:11:27.292Z,100417.91
2023-04-07T19:13:56.490Z,100403.50
2023-04-07T19:16:25.755Z,100383.03
2023-04-07T19:18:54.072Z,100411.16
2023-04-07T19:21:22.064Z,100381.47
2023-04-07T19:23:50.265Z,100379.81
2023-04-07T19:26:18.442Z,100404.75
2023-04-07T19:28:46.557Z,100406.38
2023-04-07T19:31:16.501Z,100386.13
2023-04-07T19:33:44.451Z,100429.75
2023-04-07T19:36:12.382Z,100342.31
2023-04-07T19:38:40.163Z,100449.56
2023-04-07T19:41:07.997Z,100448.22
2023-04-07T19:43:35.773Z,100447.41
2023-04-07T19:46:03.847Z,100421.78
2023-04-07T19:48:32.570Z,100433.63
2023-04-07T19:51:00.384Z,100457.22
2023-04-07T19:53:29.501Z,100405.75
2023-04-07T19:56:04.567Z,100421.69
2023-04-07T19:58:34.771Z,100461.31
2023-04-07T20:01:04.660Z,100406.09
2023-04-07T20:03:32.556Z,100481.75
2023-04-07T20:06:00.395Z,100446.47
2023-04-07T20:08:28.479Z,100435.03
2023-04-07T20:10:56.450Z,100483.38
2023-04-07T20:13:24.481Z,100431.84
2023-04-07T20:15:53.592Z,100486.63
2023-04-07T20:18:21.515Z,100492.88
2023-04-07T20:20:50.306Z,100445.91
2023-04-07T20:23:22.348Z,100490.22
2023-04-07T20:25:50.274Z,100474.59
2023-04-07T20:28:22.250Z,100459.09
2023-04-07T20:30:50.223Z,100449.78
2023-04-07T20:33:18.491Z,100506.78
2023-04-07T20:35:46.611Z,100514.63
2023-04-07T20:38:14.887Z,100488.72
2023-04-07T20:40:42.610Z,100483.06
2023-04-07T20:43:10.656Z,100488.72
2023-04-07T20:45:38.506Z,100443.91
2023-04-07T20:48:06.798Z,100487.41
2023-04-07T20:50:35.034Z,100527.16
2023-04-07T20:53:03.157Z,100509.03
2023-04-07T20:55:31.100Z,100521.53
2023-04-07T20:58:02.452Z,100515.28
2023-04-07T21:00:30.609Z,100530.41
2023-04-07T21:02:58.432Z,100448.81
2023-04-07T21:05:26.707Z,100534.50
2023-04-07T21:07:54.532Z,100474.31
2023-04-07T21:10:22.236Z,100487.81
2023-04-07T21:12:49.980Z,100531.34
2023-04-07T21:15:17.966Z,100510.50
2023-04-07T21:17:46.422Z,100489.50
2023-04-07T21:20:14.293Z,100541.34
2023-04-07T21:22:42.500Z,100525.16
2023-04-07T21:25:10.634Z,100522.66
2023-04-07T21:27:39.525Z,100438.94
2023-04-07T21:30:08.083Z,100516.97
2023-04-07T21:32:37.089Z,100536.72
2023-04-07T21:35:06.204Z,100525.44
2023-04-07T21:37:33.941Z,100484.91
2023-04-07T21:40:02.072Z,100499.50
2023-04-07T21:42:29.860Z,100514.91
2023-04-07T21:44:57.685Z,100490.88
2023-04-07T21:47:26.915Z,100511.13
2023-04-07T21:49:55.377Z,100486.81
2023-04-07T21:52:23.143Z,100552.28
2023-04-07T21:54:50.812Z,100555.00
2023-04-07T21:57:18.670Z,100537.69
2023-04-07T21:59:46.651Z,100553.13
2023-04-07T22:02:14.842Z,100550.66
2023-04-07T22:04:43.959Z,100540.50
2023-04-07T22:07:12.182Z,100510.75
2023-04-07T22:09:39.964Z,100444.25
2023-04-07T22:12:07.762Z,100508.81
2023-04-07T22:14:35.571Z,100532.91
2023-04-07T22:17:03.394Z,100518.91
2023-04-07T22:19:31.151Z,100550.19
2023-04-07T22:21:58.800Z,100521.09
2023-04-07T22:24:26.740Z,100542.13
2023-04-07T22:26:55.517Z,100555.94
2023-04-07T22:29:23.291Z,100560.28
2023-04-07T22:31:51.002Z,100551.59
2023-04-07T22:34:18.850Z,100539.50
2023-04-07T22:36:46.757Z,100560.06
2023-04-07T22:39:14.823Z,100518.44
2023-04-07T22:41:42.799Z,100551.59
2023-04-07T22:44:10.731Z,100500.00
2023-04-07T22:46:38.672Z,100478.97
2023-04-07T22:49:06.749Z,100551.38
2023-04-07T22:51:34.597Z,100565.50
2023-04-07T22:54:02.524Z,100544.97
2023-04-07T22:56:31.237Z,100521.97
2023-04-07T22:59:05.634Z,100529.31
2023-04-07T23:01:33.908Z,100401.31
2023-04-07T23:04:01.791Z,100537.97
2023-04-07T23:06:29.616Z,100572.91
2023-04-07T23:08:57.945Z,100568.81
2023-04-07T23:11:26.112Z,100538.88
2023-04-07T23:13:53.940Z,100503.91
2023-04-07T23:16:21.924Z,100511.78
2023-04-07T23:18:50.297Z,100526.09
2023-04-07T23:21:18.297Z,100567.47
2023-04-07T23:23:46.184Z,100496.91
2023-04-07T23:26:13.987Z,100556.97
2023-04-07T23:28:41.887Z,100568.09
2023-04-07T23:31:09.582Z,100505.06
2023-04-07T23:33:37.486Z,100502.09
2023-04-07T23:36:05.725Z,100512.06
2023-04-07T23:38:33.490Z,100411.59
2023-04-07T23:41:02.600Z,100574.28
2023-04-07T23:43:30.565Z,100549.16
2023-04-07T23:45:58.430Z,100550.81
2023-04-07T23:48:26.664Z,100563.28
2023-04-07T23:50:54.792Z,100527.81
2023-04-07T23:53:22.559Z,100495.91
2023-04-07T23:55:50.598Z,100534.56
2023-04-07T23:58:18.532Z,100530.00
